Time;durP1;ratioP1;P1;durP2;ratioP2;P2;SDS_P1;SDS_P2;PMS_P1;PMS_P2;Temp;Humidity;BMP_temperature;BMP_pressure;BME280_temperature;BME280_humidity;BME280_pressure;Samples;Min_cycle;Max_cycle;Signal;HPM_P1;HPM_P2
2022/10/09 00:00:21;;;;;;;4.22;1.92;;;21.70;43.10;;;;;;5051721;28;20029;-49
2022/10/09 00:02:47;;;;;;;4.30;2.35;;;21.70;43.10;;;;;;5056635;28;20116;-47
2022/10/09 00:05:13;;;;;;;4.07;2.20;;;21.70;43.10;;;;;;5057453;28;20029;-50
2022/10/09 00:07:38;;;;;;;3.25;1.55;;;21.70;43.00;;;;;;5056425;28;20068;-51
2022/10/09 00:10:05;;;;;;;4.97;2.05;;;21.70;43.10;;;;;;5055145;28;20040;-47
2022/10/09 00:12:31;;;;;;;3.60;1.98;;;21.60;43.00;;;;;;5056237;28;20065;-49
2022/10/09 00:14:56;;;;;;;5.22;1.90;;;21.70;43.00;;;;;;5057357;28;20149;-50
2022/10/09 00:17:22;;;;;;;3.42;1.80;;;21.70;43.00;;;;;;5057616;28;20486;-49
2022/10/09 00:19:48;;;;;;;2.45;1.40;;;21.70;43.00;;;;;;5053282;28;20110;-51
2022/10/09 00:22:14;;;;;;;3.53;1.88;;;21.60;42.90;;;;;;5055762;28;20095;-51
2022/10/09 00:24:42;;;;;;;3.67;1.85;;;21.60;42.90;;;;;;5058196;28;20028;-53
2022/10/09 00:27:08;;;;;;;3.55;1.60;;;21.60;42.90;;;;;;5055885;28;20032;-53
2022/10/09 00:29:34;;;;;;;5.53;2.00;;;21.70;42.90;;;;;;5055653;28;20186;-53
2022/10/09 00:31:59;;;;;;;3.50;1.67;;;21.60;42.90;;;;;;5056079;28;20040;-53
2022/10/09 00:34:25;;;;;;;3.53;1.75;;;21.60;42.90;;;;;;5056850;28;20037;-47
2022/10/09 00:36:51;;;;;;;4.90;1.98;;;21.60;42.90;;;;;;5041228;28;20159;-49
2022/10/09 00:39:17;;;;;;;3.25;1.85;;;21.60;42.80;;;;;;5042784;28;20352;-47
2022/10/09 00:41:43;;;;;;;3.35;1.77;;;21.60;42.80;;;;;;5056832;28;20525;-48
2022/10/09 00:44:46;;;;;;;2.50;1.70;;;21.60;42.80;;;;;;5057359;28;20052;-50
2022/10/09 00:47:23;;;;;;;3.90;1.80;;;21.60;42.70;;;;;;5037571;28;20115;-48
2022/10/09 00:49:53;;;;;;;3.17;1.63;;;21.60;42.70;;;;;;5050528;28;20060;-51
2022/10/09 00:52:20;;;;;;;3.28;1.73;;;21.60;42.70;;;;;;5056176;28;20032;-48
2022/10/09 00:54:46;;;;;;;3.38;1.90;;;21.60;42.70;;;;;;5057132;28;20032;-49
2022/10/09 00:57:12;;;;;;;3.03;2.00;;;21.60;42.70;;;;;;5053365;28;20036;-52
2022/10/09 00:59:39;;;;;;;2.75;1.70;;;21.60;42.70;;;;;;5053050;28;20033;-48
2022/10/09 01:02:05;;;;;;;4.50;1.83;;;21.60;42.70;;;;;;5057583;28;20360;-47
2022/10/09 01:04:31;;;;;;;3.03;1.60;;;21.60;42.70;;;;;;5057088;28;20036;-48
2022/10/09 01:07:21;;;;;;;3.67;1.67;;;21.60;42.70;;;;;;5056768;28;20057;-49
2022/10/09 01:09:55;;;;;;;2.97;1.70;;;21.60;42.70;;;;;;5053878;28;20056;-46
2022/10/09 01:12:29;;;;;;;3.75;1.98;;;21.60;42.70;;;;;;5054266;28;20036;-47
2022/10/09 01:15:32;;;;;;;3.42;1.80;;;21.60;42.80;;;;;;5056971;28;20033;-48
2022/10/09 01:18:31;;;;;;;6.68;1.80;;;21.60;42.80;;;;;;5035247;28;20110;-48
2022/10/09 01:21:20;;;;;;;4.55;1.60;;;21.60;42.80;;;;;;5036888;28;20033;-47
2022/10/09 01:24:04;;;;;;;2.92;1.67;;;21.60;42.90;;;;;;5056952;28;20029;-46
2022/10/09 01:26:48;;;;;;;3.33;1.63;;;21.60;42.90;;;;;;5056615;28;20025;-47
2022/10/09 01:29:17;;;;;;;4.43;1.70;;;21.60;42.90;;;;;;5055878;28;20319;-49
2022/10/09 01:31:47;;;;;;;2.75;1.40;;;21.60;42.90;;;;;;5055126;28;20037;-49
2022/10/09 01:34:15;;;;;;;2.90;1.48;;;21.60;42.90;;;;;;5053387;28;20032;-51
2022/10/09 01:36:43;;;;;;;2.83;1.48;;;21.60;43.00;;;;;;5056461;28;20028;-51
2022/10/09 01:39:12;;;;;;;3.75;1.50;;;21.60;43.00;;;;;;5046570;28;20029;-50
2022/10/09 01:41:38;;;;;;;3.60;1.60;;;21.60;43.00;;;;;;5036978;28;20108;-49
2022/10/09 01:44:15;;;;;;;2.42;1.35;;;21.60;43.00;;;;;;5054313;28;20116;-48
2022/10/09 01:46:41;;;;;;;4.57;1.73;;;21.60;43.00;;;;;;5045927;28;20099;-46
2022/10/09 01:49:40;;;;;;;2.60;1.38;;;21.60;42.90;;;;;;5043214;28;20036;-50
2022/10/09 01:52:32;;;;;;;3.28;1.70;;;21.60;42.80;;;;;;5055379;28;20037;-48
2022/10/09 01:55:25;;;;;;;2.35;1.45;;;21.60;42.80;;;;;;5056088;28;20037;-46
2022/10/09 01:57:56;;;;;;;3.30;1.55;;;21.50;42.70;;;;;;5055407;28;20037;-50
2022/10/09 02:00:23;;;;;;;2.58;1.58;;;21.60;42.80;;;;;;5053563;28;20559;-45
2022/10/09 02:02:50;;;;;;;3.30;1.60;;;21.60;42.80;;;;;;5053223;28;20024;-49
2022/10/09 02:05:22;;;;;;;3.13;1.60;;;21.50;42.80;;;;;;5055331;28;20056;-47
2022/10/09 02:07:48;;;;;;;3.88;1.95;;;21.50;42.80;;;;;;5055250;28;20040;-47
2022/10/09 02:10:16;;;;;;;3.58;1.67;;;21.50;42.70;;;;;;5049302;28;20037;-46
2022/10/09 02:12:46;;;;;;;3.65;1.65;;;21.50;42.70;;;;;;5039469;28;20032;-47
2022/10/09 02:15:13;;;;;;;3.95;1.80;;;21.50;42.70;;;;;;5056230;28;20112;-49
2022/10/09 02:17:45;;;;;;;4.07;1.70;;;21.50;42.70;;;;;;5055906;28;20043;-49
2022/10/09 02:20:42;;;;;;;2.85;1.40;;;21.50;42.70;;;;;;5052380;28;20331;-47
2022/10/09 02:23:10;;;;;;;2.75;1.50;;;21.50;42.70;;;;;;5035812;28;20037;-47
2022/10/09 02:25:36;;;;;;;2.17;1.40;;;21.50;42.60;;;;;;5054684;28;20029;-48
2022/10/09 02:28:03;;;;;;;2.42;1.58;;;21.50;42.50;;;;;;5053077;28;20040;-48
2022/10/09 02:30:38;;;;;;;2.45;1.63;;;21.50;42.50;;;;;;5035964;28;20036;-48
2022/10/09 02:33:04;;;;;;;2.75;1.60;;;21.50;42.50;;;;;;5044027;28;20448;-46
2022/10/09 02:35:31;;;;;;;2.95;1.50;;;21.50;42.50;;;;;;5042324;28;20033;-48
2022/10/09 02:37:56;;;;;;;3.00;1.40;;;21.50;42.50;;;;;;5034872;28;20029;-48
2022/10/09 02:40:22;;;;;;;3.80;1.42;;;21.50;42.50;;;;;;5043456;28;20036;-47
2022/10/09 02:42:48;;;;;;;2.65;1.23;;;21.50;42.50;;;;;;5054346;28;20415;-47
2022/10/09 02:45:14;;;;;;;2.33;1.20;;;21.50;42.40;;;;;;5055538;28;20040;-47
2022/10/09 02:47:40;;;;;;;1.85;1.20;;;21.50;42.40;;;;;;5038035;28;20044;-47
2022/10/09 02:50:06;;;;;;;2.47;1.30;;;21.50;42.40;;;;;;5041806;28;20029;-48
2022/10/09 02:52:32;;;;;;;2.58;1.55;;;21.50;42.40;;;;;;5053392;28;20195;-48
2022/10/09 02:54:58;;;;;;;3.20;1.48;;;21.50;42.30;;;;;;5055090;28;20115;-47
2022/10/09 02:57:24;;;;;;;5.20;1.45;;;21.50;42.20;;;;;;5054749;28;20032;-50
2022/10/09 02:59:50;;;;;;;1.90;1.35;;;21.50;42.20;;;;;;5035371;28;20114;-47
2022/10/09 03:02:15;;;;;;;1.88;1.20;;;21.40;42.10;;;;;;5038519;28;20448;-49
2022/10/09 03:04:41;;;;;;;2.78;1.30;;;21.50;42.20;;;;;;5054005;28;20039;-50
2022/10/09 03:07:07;;;;;;;2.85;1.38;;;21.40;42.10;;;;;;5054911;28;20048;-45
2022/10/09 03:09:33;;;;;;;4.07;1.73;;;21.40;42.10;;;;;;5051993;28;20041;-45
2022/10/09 03:11:58;;;;;;;2.92;1.50;;;21.40;42.10;;;;;;5050242;28;20029;-45
2022/10/09 03:14:24;;;;;;;2.65;1.27;;;21.40;42.00;;;;;;5054185;28;20025;-46
2022/10/09 03:16:50;;;;;;;2.25;1.20;;;21.40;42.00;;;;;;5054019;28;20029;-49
2022/10/09 03:19:16;;;;;;;2.67;1.38;;;21.40;42.00;;;;;;5051718;28;20029;-46
2022/10/09 03:21:42;;;;;;;2.35;1.40;;;21.40;42.00;;;;;;5051983;28;20029;-47
2022/10/09 03:24:08;;;;;;;2.63;1.23;;;21.40;42.00;;;;;;5053603;28;20436;-45
2022/10/09 03:26:34;;;;;;;3.50;1.00;;;21.40;41.90;;;;;;5054854;28;20108;-46
2022/10/09 03:29:00;;;;;;;2.67;1.10;;;21.40;41.90;;;;;;5055364;28;20470;-46
2022/10/09 03:31:26;;;;;;;1.75;0.98;;;21.40;41.90;;;;;;5054341;28;20099;-48
2022/10/09 03:33:52;;;;;;;2.70;1.20;;;21.40;41.90;;;;;;5052862;28;20033;-47
2022/10/09 03:36:18;;;;;;;2.05;1.17;;;21.40;41.90;;;;;;5035323;28;20030;-46
2022/10/09 03:38:44;;;;;;;1.45;1.15;;;21.40;41.90;;;;;;5034959;28;20036;-48
2022/10/09 03:41:09;;;;;;;1.75;1.20;;;21.40;41.90;;;;;;5034881;28;20097;-49
2022/10/09 03:43:35;;;;;;;3.30;1.25;;;21.40;41.90;;;;;;5051635;28;20025;-51
2022/10/09 03:46:08;;;;;;;3.15;1.30;;;21.40;41.80;;;;;;5053159;28;20021;-47
2022/10/09 03:48:35;;;;;;;2.05;1.35;;;21.30;41.70;;;;;;5053238;28;20349;-54
2022/10/09 03:51:01;;;;;;;3.65;1.45;;;21.40;41.80;;;;;;5043479;28;20021;-52
2022/10/09 03:53:27;;;;;;;2.47;1.25;;;21.30;41.70;;;;;;5052466;28;20047;-53
2022/10/09 03:55:53;;;;;;;1.98;1.20;;;21.40;41.80;;;;;;5054466;28;20116;-52
2022/10/09 03:58:18;;;;;;;2.20;1.30;;;21.30;41.70;;;;;;5053512;28;20029;-46
2022/10/09 04:00:45;;;;;;;2.67;1.45;;;21.40;41.80;;;;;;5054577;28;20027;-46
2022/10/09 04:03:11;;;;;;;3.20;1.60;;;21.30;41.70;;;;;;5052286;28;20070;-46
2022/10/09 04:05:37;;;;;;;2.80;1.60;;;21.30;41.70;;;;;;5050186;28;20028;-46
2022/10/09 04:08:03;;;;;;;3.17;1.58;;;21.40;41.80;;;;;;5051255;28;20204;-48
2022/10/09 04:10:29;;;;;;;5.07;2.08;;;21.40;41.80;;;;;;5045513;28;20109;-46
2022/10/09 04:12:55;;;;;;;2.42;1.42;;;21.30;41.80;;;;;;5050864;28;20041;-48
2022/10/09 04:15:20;;;;;;;4.00;1.70;;;21.30;41.90;;;;;;5053562;28;20033;-48
2022/10/09 04:17:46;;;;;;;2.13;1.27;;;21.30;41.80;;;;;;5053996;28;20029;-48
2022/10/09 04:20:12;;;;;;;4.22;1.45;;;21.30;41.90;;;;;;5051999;28;20044;-46
2022/10/09 04:22:38;;;;;;;2.28;1.30;;;21.30;41.90;;;;;;5048440;28;20112;-47
2022/10/09 04:25:04;;;;;;;3.30;1.63;;;21.40;41.90;;;;;;5054511;28;20040;-51
2022/10/09 04:27:30;;;;;;;2.45;1.33;;;21.30;41.80;;;;;;5055496;28;20044;-48
2022/10/09 04:29:56;;;;;;;3.85;1.40;;;21.30;41.80;;;;;;5058034;28;20041;-49
2022/10/09 04:32:22;;;;;;;2.22;1.10;;;21.30;41.80;;;;;;5055539;28;20064;-45
2022/10/09 04:34:48;;;;;;;2.92;1.50;;;21.30;42.40;;;;;;5057888;28;20456;-48
2022/10/09 04:37:14;;;;;;;1.98;1.40;;;21.30;41.70;;;;;;5056756;28;20372;-49
2022/10/09 04:39:39;;;;;;;3.63;1.48;;;21.30;41.70;;;;;;5056035;28;20122;-45
2022/10/09 04:42:05;;;;;;;2.72;1.27;;;21.30;41.70;;;;;;5056686;28;20024;-50
2022/10/09 04:44:31;;;;;;;1.77;1.25;;;21.30;41.70;;;;;;5039058;28;20056;-47
2022/10/09 04:46:57;;;;;;;2.80;1.40;;;21.30;41.70;;;;;;5047106;28;20186;-48
2022/10/09 04:49:23;;;;;;;2.28;1.10;;;21.30;41.70;;;;;;5057575;28;20048;-47
2022/10/09 04:51:49;;;;;;;2.25;1.20;;;21.30;41.70;;;;;;5054052;28;20138;-45
2022/10/09 04:54:15;;;;;;;3.08;1.40;;;21.30;41.70;;;;;;5044617;28;20036;-46
2022/10/09 04:56:40;;;;;;;3.15;1.40;;;21.30;41.70;;;;;;5037132;28;20108;-48
2022/10/09 04:59:06;;;;;;;2.08;1.15;;;21.30;41.70;;;;;;5049542;28;20125;-47
2022/10/09 05:01:32;;;;;;;2.95;1.20;;;21.30;41.70;;;;;;5054008;28;20100;-45
2022/10/09 05:03:58;;;;;;;2.05;1.33;;;21.30;41.70;;;;;;5055472;28;20025;-46
2022/10/09 05:06:24;;;;;;;2.88;1.30;;;21.30;41.70;;;;;;5055856;28;20021;-47
2022/10/09 05:08:50;;;;;;;3.42;1.20;;;21.20;41.60;;;;;;5054805;28;20091;-50
2022/10/09 05:11:20;;;;;;;2.45;1.30;;;21.30;42.20;;;;;;5055525;28;20025;-47
2022/10/09 05:13:52;;;;;;;1.60;1.00;;;21.20;41.50;;;;;;5057384;28;20123;-46
2022/10/09 05:16:21;;;;;;;2.17;1.35;;;21.20;41.50;;;;;;5056786;28;20025;-49
2022/10/09 05:18:52;;;;;;;2.60;1.30;;;21.20;41.40;;;;;;5055140;28;20036;-47
2022/10/09 05:21:19;;;;;;;2.22;1.27;;;21.20;41.40;;;;;;5055757;28;20107;-48
2022/10/09 05:23:46;;;;;;;2.53;1.23;;;21.30;41.40;;;;;;5054311;28;20033;-50
2022/10/09 05:26:17;;;;;;;3.78;1.63;;;21.20;41.40;;;;;;5056664;28;20064;-45
2022/10/09 05:28:44;;;;;;;2.85;1.60;;;21.20;41.40;;;;;;5052117;28;20041;-50
2022/10/09 05:31:19;;;;;;;2.40;1.10;;;21.20;41.30;;;;;;5055715;28;20444;-47
2022/10/09 05:33:45;;;;;;;2.47;1.23;;;21.20;41.30;;;;;;5054523;28;20044;-45
2022/10/09 05:36:12;;;;;;;2.15;1.10;;;21.20;41.30;;;;;;5054131;28;20060;-46
2022/10/09 05:38:37;;;;;;;3.10;1.38;;;21.20;41.30;;;;;;5056143;28;20094;-47
2022/10/09 05:41:05;;;;;;;2.42;1.15;;;21.20;41.30;;;;;;5055790;28;20360;-50
2022/10/09 05:43:36;;;;;;;3.17;1.65;;;21.20;41.30;;;;;;5054536;28;20025;-46
2022/10/09 05:46:08;;;;;;;2.38;1.17;;;21.20;41.30;;;;;;5056483;28;20029;-46
2022/10/09 05:48:34;;;;;;;3.22;1.10;;;21.20;41.30;;;;;;5055907;28;20368;-47
2022/10/09 05:51:11;;;;;;;5.00;1.40;;;21.20;41.20;;;;;;5054436;28;20138;-52
2022/10/09 05:53:37;;;;;;;3.72;1.25;;;21.20;41.30;;;;;;5049038;28;20128;-52
2022/10/09 05:56:16;;;;;;;1.95;1.08;;;21.20;41.30;;;;;;5047293;28;20495;-54
2022/10/09 05:58:43;;;;;;;3.30;1.30;;;21.20;41.20;;;;;;5054908;28;20056;-52
2022/10/09 06:01:10;;;;;;;3.42;1.17;;;21.20;41.20;;;;;;5055205;28;20021;-50
2022/10/09 06:03:36;;;;;;;2.30;1.38;;;21.20;41.20;;;;;;5056884;28;20037;-46
2022/10/09 06:06:04;;;;;;;4.55;1.50;;;21.20;41.90;;;;;;5044121;28;20127;-47
2022/10/09 06:08:32;;;;;;;3.35;1.40;;;21.10;41.30;;;;;;5038323;28;20045;-47
2022/10/09 06:11:06;;;;;;;2.40;1.17;;;21.20;41.40;;;;;;5055289;28;20040;-46
2022/10/09 06:13:32;;;;;;;2.63;1.00;;;21.20;41.40;;;;;;5055463;28;20029;-46
2022/10/09 06:15:58;;;;;;;2.50;1.23;;;21.20;41.40;;;;;;5056230;28;20032;-48
2022/10/09 06:18:24;;;;;;;3.38;1.20;;;21.10;41.30;;;;;;5039852;28;20044;-46
2022/10/09 06:20:54;;;;;;;2.17;1.30;;;21.10;41.30;;;;;;5055763;28;20025;-47
2022/10/09 06:23:20;;;;;;;5.93;1.30;;;21.20;41.40;;;;;;5055258;28;20452;-47
2022/10/09 06:25:53;;;;;;;2.63;1.20;;;21.10;41.40;;;;;;5056069;28;20055;-46
2022/10/09 06:28:20;;;;;;;2.33;1.30;;;21.10;41.40;;;;;;5051773;28;20482;-48
2022/10/09 06:30:46;;;;;;;2.85;1.30;;;21.10;41.50;;;;;;5054090;28;20020;-46
2022/10/09 06:33:12;;;;;;;1.70;1.05;;;21.10;41.50;;;;;;5052857;28;20048;-46
2022/10/09 06:35:38;;;;;;;2.78;1.40;;;21.20;41.60;;;;;;5054420;28;20111;-48
2022/10/09 06:38:04;;;;;;;3.88;1.10;;;21.20;41.60;;;;;;5055886;28;20434;-48
2022/10/09 06:40:29;;;;;;;2.25;1.20;;;21.10;41.50;;;;;;5048030;28;20033;-51
2022/10/09 06:42:55;;;;;;;1.95;1.10;;;21.10;41.50;;;;;;5054442;28;20352;-52
2022/10/09 06:45:21;;;;;;;4.30;1.58;;;21.10;41.50;;;;;;5052565;28;20021;-47
2022/10/09 06:47:47;;;;;;;2.53;1.25;;;21.10;41.50;;;;;;5053933;28;20039;-51
2022/10/09 06:50:14;;;;;;;2.60;1.30;;;21.10;41.40;;;;;;5054580;28;20029;-47
2022/10/09 06:52:40;;;;;;;2.83;1.30;;;21.10;41.50;;;;;;5042008;28;20062;-48
2022/10/09 06:55:06;;;;;;;3.50;1.50;;;21.10;41.40;;;;;;5043240;28;20033;-46
2022/10/09 06:57:32;;;;;;;2.10;1.10;;;21.10;41.40;;;;;;5035754;28;20101;-48
2022/10/09 06:59:58;;;;;;;6.32;1.67;;;21.10;41.40;;;;;;5039378;28;20041;-50
2022/10/09 07:02:24;;;;;;;3.38;1.50;;;21.10;41.40;;;;;;5051823;28;20047;-52
2022/10/09 07:04:50;;;;;;;2.85;1.48;;;21.10;41.40;;;;;;5053960;28;20029;-47
2022/10/09 07:07:15;;;;;;;2.67;1.23;;;21.10;41.40;;;;;;5054650;28;20040;-49
2022/10/09 07:09:41;;;;;;;3.80;1.50;;;21.10;41.40;;;;;;5050332;28;20045;-48
2022/10/09 07:12:08;;;;;;;3.17;1.45;;;21.10;41.50;;;;;;5053514;28;20063;-49
2022/10/09 07:14:34;;;;;;;3.95;1.70;;;21.10;41.60;;;;;;5060045;28;20032;-46
2022/10/09 07:17:00;;;;;;;2.22;1.52;;;21.10;41.70;;;;;;5057676;28;20028;-46
2022/10/09 07:19:25;;;;;;;3.55;1.70;;;21.10;41.70;;;;;;5051511;28;20028;-48
2022/10/09 07:21:51;;;;;;;2.65;1.20;;;21.10;41.70;;;;;;5054256;28;20091;-47
2022/10/09 07:24:19;;;;;;;2.97;1.40;;;21.10;41.70;;;;;;5053753;28;20111;-49
2022/10/09 07:26:45;;;;;;;3.03;1.23;;;21.10;41.70;;;;;;5052203;28;20033;-45
2022/10/09 07:29:13;;;;;;;3.80;1.63;;;21.20;41.80;;;;;;5050796;28;20444;-47
2022/10/09 07:31:39;;;;;;;4.28;1.50;;;21.20;42.40;;;;;;5051274;28;20025;-51
2022/10/09 07:34:05;;;;;;;2.95;1.48;;;21.10;41.80;;;;;;5053070;28;20021;-51
2022/10/09 07:36:31;;;;;;;3.95;1.70;;;21.20;41.80;;;;;;5029007;28;20356;-48
2022/10/09 07:38:58;;;;;;;2.10;1.38;;;21.20;41.90;;;;;;5054394;28;20468;-48
2022/10/09 07:41:26;;;;;;;1.95;1.10;;;21.20;42.00;;;;;;5049506;28;20103;-48
2022/10/09 07:43:53;;;;;;;2.85;1.48;;;21.20;42.00;;;;;;5054442;28;20063;-50
2022/10/09 07:46:24;;;;;;;2.03;1.10;;;21.20;42.00;;;;;;5054418;28;20029;-47
2022/10/09 07:48:53;;;;;;;3.42;1.60;;;21.20;42.70;;;;;;5054411;28;20064;-47
2022/10/09 07:51:26;;;;;;;2.67;1.20;;;21.20;42.10;;;;;;5053218;28;20025;-47
2022/10/09 07:53:53;;;;;;;2.55;1.40;;;21.20;42.10;;;;;;5052435;28;20041;-52
2022/10/09 07:56:21;;;;;;;2.55;1.50;;;21.20;42.10;;;;;;5048566;28;20103;-51
2022/10/09 07:58:49;;;;;;;3.40;1.60;;;21.10;42.10;;;;;;5055690;28;20021;-50
2022/10/09 08:01:15;;;;;;;5.05;1.73;;;21.20;42.30;;;;;;5026482;28;20028;-52
2022/10/09 08:03:41;;;;;;;3.88;1.83;;;21.20;42.40;;;;;;5053440;28;20033;-52
2022/10/09 08:06:07;;;;;;;4.43;1.90;;;21.20;42.50;;;;;;5050363;28;20060;-46
2022/10/09 08:08:33;;;;;;;3.03;1.65;;;21.10;42.50;;;;;;5040826;28;21755;-49
2022/10/09 08:10:58;;;;;;;4.18;1.65;;;21.20;42.70;;;;;;5052885;28;20036;-47
2022/10/09 08:13:24;;;;;;;4.40;1.70;;;21.20;42.70;;;;;;5040761;28;20064;-49
2022/10/09 08:15:50;;;;;;;4.15;1.88;;;21.20;42.80;;;;;;5042110;28;20032;-48
2022/10/09 08:18:16;;;;;;;3.20;1.48;;;21.20;42.90;;;;;;5038399;28;20144;-52
2022/10/09 08:20:42;;;;;;;4.03;1.85;;;21.20;42.90;;;;;;5052522;28;20025;-48
2022/10/09 08:23:08;;;;;;;5.15;2.03;;;21.20;43.00;;;;;;5051917;28;20029;-49
2022/10/09 08:25:35;;;;;;;2.88;1.50;;;21.20;43.20;;;;;;5055240;28;20458;-48
2022/10/09 08:28:02;;;;;;;3.75;1.65;;;21.20;43.30;;;;;;5044961;28;20057;-49
2022/10/09 08:30:28;;;;;;;4.38;1.98;;;21.20;43.50;;;;;;5057605;28;20064;-49
2022/10/09 08:32:54;;;;;;;3.72;1.70;;;21.20;43.60;;;;;;5057704;28;20087;-51
2022/10/09 08:35:19;;;;;;;3.47;1.10;;;21.20;43.80;;;;;;5055385;28;20028;-63
2022/10/09 08:37:45;;;;;;;3.20;1.20;;;21.20;43.70;;;;;;5041423;28;20353;-62
2022/10/09 08:40:32;;;;;;;2.47;1.20;;;21.10;43.20;;;;;;5050821;28;20068;-59
2022/10/09 08:43:14;;;;;;;3.22;1.25;;;21.10;43.00;;;;;;5049514;28;20051;-48
2022/10/09 08:45:43;;;;;;;2.90;1.50;;;21.00;42.90;;;;;;5052877;28;20108;-51
2022/10/09 08:48:17;;;;;;;4.07;1.65;;;21.00;43.20;;;;;;5057098;28;20043;-51
2022/10/09 08:50:46;;;;;;;;;;;20.90;43.70;;;;;;5058094;28;20071;-53
2022/10/09 08:53:32;;;;;;;17.30;7.82;;;21.00;44.10;;;;;;5050744;28;19913;-47
2022/10/09 08:56:02;;;;;;;20.42;9.65;;;20.90;46.60;;;;;;5044388;28;20432;-51
2022/10/09 08:58:33;;;;;;;22.20;10.38;;;21.00;48.10;;;;;;5048631;28;20029;-51
2022/10/09 09:01:23;;;;;;;20.98;10.05;;;21.00;50.10;;;;;;5044775;28;20093;-54
2022/10/09 09:04:13;;;;;;;21.63;9.02;;;21.00;51.60;;;;;;5053746;28;20032;-54
2022/10/09 09:07:05;;;;;;;21.33;8.32;;;21.10;51.80;;;;;;5056738;28;20037;-49
2022/10/09 09:10:01;;;;;;;17.08;8.05;;;21.10;51.80;;;;;;5019629;28;20081;-54
2022/10/09 09:12:26;;;;;;;;;;;21.20;52.60;;;;;;5019184;28;20037;-51
2022/10/09 09:14:55;;;;;;;22.13;7.82;;;21.10;53.60;;;;;;5027384;28;20351;-49
2022/10/09 09:17:47;;;;;;;19.60;7.72;;;21.20;52.50;;;;;;5030349;28;20033;-54
2022/10/09 09:20:26;;;;;;;26.17;11.40;;;21.20;51.70;;;;;;5031055;28;20029;-47
2022/10/09 09:22:52;;;;;;;28.95;12.45;;;21.20;52.40;;;;;;5029686;28;20062;-48
2022/10/09 09:25:24;;;;;;;28.02;12.45;;;21.30;53.30;;;;;;5036515;28;20037;-52
2022/10/09 09:27:52;;;;;;;30.50;12.70;;;21.30;54.60;;;;;;5020775;28;20030;-50
2022/10/09 09:30:32;;;;;;;27.88;12.23;;;21.30;55.70;;;;;;5035080;28;20528;-51
2022/10/09 09:33:18;;;;;;;33.75;12.88;;;21.30;56.30;;;;;;5026757;28;20113;-54
2022/10/09 09:35:59;;;;;;;30.60;12.73;;;21.40;57.20;;;;;;5023758;28;20073;-52
2022/10/09 09:38:25;;;;;;;27.75;11.65;;;21.40;58.00;;;;;;5027795;28;20034;-47
2022/10/09 09:40:52;;;;;;;26.60;12.02;;;21.50;58.40;;;;;;5018343;28;20511;-50
2022/10/09 09:43:21;;;;;;;24.77;10.35;;;21.50;58.60;;;;;;5017589;28;20505;-49
2022/10/09 09:45:50;;;;;;;18.40;7.85;;;21.50;58.10;;;;;;5030300;28;20087;-63
2022/10/09 09:48:25;;;;;;;15.05;6.57;;;21.50;56.60;;;;;;5033141;28;21131;-46
2022/10/09 09:50:53;;;;;;;10.73;4.82;;;21.60;55.00;;;;;;5033900;28;20030;-45
2022/10/09 09:53:41;;;;;;;10.55;4.50;;;21.50;53.30;;;;;;5034793;28;21648;-48
2022/10/09 09:56:07;;;;;;;9.93;3.80;;;21.50;51.70;;;;;;5030110;28;20030;-50
2022/10/09 09:58:35;;;;;;;7.70;3.72;;;21.50;50.90;;;;;;5026245;28;20048;-49
2022/10/09 10:01:03;;;;;;;7.00;3.17;;;21.50;50.10;;;;;;5027078;28;20095;-52
2022/10/09 10:03:30;;;;;;;8.63;3.35;;;21.50;49.50;;;;;;5027222;28;20080;-53
2022/10/09 10:05:55;;;;;;;7.05;3.25;;;21.50;49.00;;;;;;5028950;28;20452;-53
2022/10/09 10:08:24;;;;;;;7.13;3.17;;;21.60;48.80;;;;;;5042780;28;20041;-48
2022/10/09 10:10:53;;;;;;;8.85;3.45;;;21.60;48.50;;;;;;5049963;28;20430;-50
2022/10/09 10:13:29;;;;;;;7.78;3.22;;;21.60;48.40;;;;;;5049146;28;20040;-49
2022/10/09 10:15:56;;;;;;;6.63;3.00;;;21.60;48.30;;;;;;5049197;28;20033;-48
2022/10/09 10:18:28;;;;;;;8.35;3.13;;;21.60;48.20;;;;;;5046661;28;20128;-49
2022/10/09 10:21:24;;;;;;;6.97;3.15;;;21.70;48.00;;;;;;5046500;28;20337;-50
2022/10/09 10:24:04;;;;;;;6.03;2.97;;;21.70;47.80;;;;;;5035700;28;20037;-48
2022/10/09 10:26:40;;;;;;;5.22;2.50;;;21.70;47.70;;;;;;5046683;28;20409;-47
2022/10/09 10:29:19;;;;;;;9.25;3.25;;;21.70;47.70;;;;;;5048031;28;20041;-48
2022/10/09 10:32:03;;;;;;;6.13;2.80;;;21.70;47.60;;;;;;5049437;28;20099;-50
2022/10/09 10:34:35;;;;;;;4.95;2.58;;;21.70;47.50;;;;;;5046741;28;20035;-47
2022/10/09 10:37:13;;;;;;;7.05;3.38;;;21.80;47.50;;;;;;5047145;28;20356;-50
2022/10/09 10:39:45;;;;;;;6.82;2.80;;;21.70;47.40;;;;;;5049986;28;20017;-46
2022/10/09 10:42:18;;;;;;;5.63;2.80;;;21.80;47.30;;;;;;5046941;28;20025;-51
2022/10/09 10:44:59;;;;;;;8.77;2.63;;;21.80;47.20;;;;;;5048463;28;20090;-49
2022/10/09 10:47:28;;;;;;;6.90;2.38;;;21.80;47.10;;;;;;5047910;28;20455;-52
2022/10/09 10:49:54;;;;;;;4.45;2.33;;;21.80;47.00;;;;;;5048856;28;20052;-49
2022/10/09 10:52:39;;;;;;;6.88;2.90;;;21.80;47.00;;;;;;5045903;28;20033;-52
2022/10/09 10:55:35;;;;;;;3.88;2.00;;;21.90;46.90;;;;;;5044293;28;20318;-48
2022/10/09 10:58:19;;;;;;;5.60;2.50;;;21.90;46.70;;;;;;5043019;28;20021;-49
2022/10/09 11:01:10;;;;;;;4.30;2.00;;;21.90;46.70;;;;;;5047811;28;20478;-49
2022/10/09 11:03:41;;;;;;;4.15;2.10;;;21.90;46.70;;;;;;5047095;28;20033;-48
2022/10/09 11:06:46;;;;;;;4.82;2.22;;;21.90;46.70;;;;;;5044629;28;20060;-49
2022/10/09 11:09:30;;;;;;;3.35;1.55;;;22.00;46.70;;;;;;5048139;28;20056;-49
2022/10/09 11:12:34;;;;;;;5.27;2.13;;;22.00;46.70;;;;;;5047099;28;20033;-50
2022/10/09 11:15:22;;;;;;;4.35;2.22;;;22.00;46.60;;;;;;5034427;28;20048;-50
2022/10/09 11:18:02;;;;;;;4.00;1.75;;;22.00;46.50;;;;;;5046881;28;20032;-49
2022/10/09 11:20:49;;;;;;;6.00;2.08;;;22.00;46.50;;;;;;5047325;28;20123;-47
2022/10/09 11:23:36;;;;;;;3.20;1.90;;;22.10;46.50;;;;;;5047731;28;20059;-46
2022/10/09 11:26:10;;;;;;;2.80;1.33;;;22.10;46.40;;;;;;5045436;28;20983;-47
2022/10/09 11:28:43;;;;;;;3.72;1.92;;;22.10;46.30;;;;;;5043606;28;20043;-47
2022/10/09 11:31:11;;;;;;;3.50;1.67;;;22.10;46.30;;;;;;5047026;28;20436;-46
2022/10/09 11:33:53;;;;;;;3.72;1.98;;;22.10;46.20;;;;;;5048321;28;20447;-49
2022/10/09 11:36:22;;;;;;;4.38;1.95;;;22.20;46.10;;;;;;5045821;28;20155;-51
2022/10/09 11:38:55;;;;;;;4.25;1.77;;;22.20;46.00;;;;;;5050064;28;20822;-47
2022/10/09 11:41:21;;;;;;;4.65;1.80;;;22.20;45.90;;;;;;5051204;28;20033;-50
2022/10/09 11:43:55;;;;;;;5.50;1.95;;;22.20;45.90;;;;;;5048812;28;20043;-48
2022/10/09 11:46:45;;;;;;;3.17;1.42;;;22.20;45.80;;;;;;5050263;28;20040;-49
2022/10/09 11:49:50;;;;;;;4.15;1.50;;;22.30;45.70;;;;;;5051220;28;20037;-49
2022/10/09 11:52:34;;;;;;;4.55;1.67;;;22.30;45.60;;;;;;5048350;28;20045;-50
2022/10/09 11:55:16;;;;;;;4.15;1.70;;;22.30;45.50;;;;;;5051768;28;20041;-58
2022/10/09 11:57:42;;;;;;;3.83;1.63;;;22.30;45.40;;;;;;5036756;28;20361;-49
2022/10/09 12:00:09;;;;;;;3.28;1.60;;;22.30;45.20;;;;;;5056528;28;20025;-48
2022/10/09 12:02:36;;;;;;;3.00;1.30;;;22.30;44.90;;;;;;5058537;28;20109;-53
2022/10/09 12:05:19;;;;;;;4.20;1.40;;;22.30;44.60;;;;;;5058520;28;20040;-54
2022/10/09 12:07:45;;;;;;;3.78;1.40;;;22.30;44.30;;;;;;5054713;28;20048;-58
2022/10/09 12:10:28;;;;;;;4.80;1.30;;;22.30;44.40;;;;;;5053152;28;20621;-58
2022/10/09 12:13:03;;;;;;;2.22;1.30;;;22.30;44.70;;;;;;5054291;28;20123;-58
2022/10/09 12:15:55;;;;;;;2.60;1.20;;;22.30;44.70;;;;;;5054414;28;20098;-59
2022/10/09 12:18:24;;;;;;;2.25;1.13;;;22.40;44.70;;;;;;5050908;28;20430;-58
2022/10/09 12:20:52;;;;;;;3.35;1.08;;;22.50;44.70;;;;;;5056816;28;20021;-57
2022/10/09 12:23:23;;;;;;;3.20;1.20;;;22.50;44.40;;;;;;5055576;28;20037;-59
2022/10/09 12:25:52;;;;;;;2.63;1.00;;;22.60;44.30;;;;;;5048850;28;20461;-56
2022/10/09 12:28:39;;;;;;;3.78;1.42;;;22.80;44.00;;;;;;5046822;28;20044;-55
2022/10/09 12:31:16;;;;;;;2.33;1.08;;;22.90;43.90;;;;;;5044008;28;20025;-56
2022/10/09 12:33:50;;;;;;;2.70;1.20;;;23.00;43.80;;;;;;5045812;28;20057;-57
2022/10/09 12:36:29;;;;;;;2.95;1.20;;;23.10;43.60;;;;;;5045819;28;20379;-55
2022/10/09 12:38:55;;;;;;;2.55;1.00;;;23.20;43.40;;;;;;5045284;28;20064;-52
2022/10/09 12:41:31;;;;;;;2.75;1.15;;;23.30;43.30;;;;;;5046876;28;20044;-57
2022/10/09 12:43:58;;;;;;;3.55;1.15;;;23.40;43.10;;;;;;5045129;28;20040;-54
2022/10/09 12:46:28;;;;;;;5.85;1.13;;;23.50;42.90;;;;;;5045326;28;20029;-57
2022/10/09 12:48:55;;;;;;;1.42;0.65;;;23.60;42.80;;;;;;5042523;28;20037;-57
2022/10/09 12:51:25;;;;;;;1.73;0.90;;;23.70;42.50;;;;;;5054457;28;20021;-59
2022/10/09 12:53:52;;;;;;;2.70;1.10;;;23.80;42.40;;;;;;5054826;28;20027;-56
2022/10/09 12:56:27;;;;;;;2.50;0.98;;;23.80;42.10;;;;;;5052627;28;20460;-55
2022/10/09 12:58:54;;;;;;;2.15;0.93;;;23.90;41.90;;;;;;5054780;28;20033;-54
2022/10/09 13:01:21;;;;;;;2.33;1.20;;;24.00;41.80;;;;;;5055070;28;20115;-53
2022/10/09 13:04:10;;;;;;;3.60;1.20;;;24.10;41.60;;;;;;5052736;28;20025;-53